Time;durP1;ratioP1;P1;durP2;ratioP2;P2;SDS_P1;SDS_P2;PMS_P1;PMS_P2;Temp;Humidity;BMP_temperature;BMP_pressure;BME280_temperature;BME280_humidity;BME280_pressure;Samples;Min_cycle;Max_cycle;Signal;HPM_P1;HPM_P2
2022/07/06 00:01:25;;;;;;;3.08;1.40;;;;;;;;;;5018275;28;20072;-73
2022/07/06 00:03:51;;;;;;;2.97;1.60;;;;;;;;;;5018739;28;20135;-69
2022/07/06 00:06:17;;;;;;;2.65;1.20;;;;;;;;;;5020380;28;20396;-73
2022/07/06 00:08:43;;;;;;;2.50;1.60;;;;;;;;;;5015117;28;20526;-74
2022/07/06 00:11:08;;;;;;;2.80;1.40;;;;;;;;;;5017444;28;20030;-73
2022/07/06 00:13:34;;;;;;;3.63;1.55;;;;;;;;;;5020713;28;20025;-73
2022/07/06 00:15:59;;;;;;;2.60;1.60;;;;;;;;;;5015953;28;20037;-74
2022/07/06 00:18:25;;;;;;;3.33;1.40;;;;;;;;;;5021066;28;20030;-74
2022/07/06 00:20:50;;;;;;;2.85;1.65;;;;;;;;;;5021114;28;20034;-72
2022/07/06 00:23:15;;;;;;;2.97;1.40;;;;;;;;;;5023702;28;20026;-70
2022/07/06 00:25:41;;;;;;;3.42;1.50;;;;;;;;;;5017288;28;20041;-73
2022/07/06 00:28:06;;;;;;;3.70;1.50;;;;;;;;;;5017714;28;20041;-74
2022/07/06 00:30:32;;;;;;;1.75;1.23;;;;;;;;;;5013773;28;20517;-75
2022/07/06 00:32:58;;;;;;;3.28;1.30;;;;;;;;;;5023239;28;20116;-74
2022/07/06 00:35:24;;;;;;;2.35;1.25;;;;;;;;;;5017413;28;20029;-72
2022/07/06 00:37:50;;;;;;;3.78;1.27;;;;;;;;;;5025889;28;20029;-74
2022/07/06 00:40:15;;;;;;;2.70;1.35;;;;;;;;;;5024538;28;20066;-74
2022/07/06 00:42:46;;;;;;;2.53;1.52;;;;;;;;;;5021814;28;20026;-70
2022/07/06 00:45:13;;;;;;;2.53;1.30;;;;;;;;;;5022938;28;20029;-73
2022/07/06 00:47:39;;;;;;;3.50;1.35;;;;;;;;;;5022685;28;20037;-73
2022/07/06 00:50:22;;;;;;;2.58;1.52;;;;;;;;;;5017747;28;20029;-73
2022/07/06 00:52:54;;;;;;;4.05;1.65;;;;;;;;;;5024082;28;20112;-74
2022/07/06 00:55:23;;;;;;;2.65;1.50;;;;;;;;;;5025204;28;20504;-69
2022/07/06 00:57:48;;;;;;;3.22;1.55;;;;;;;;;;5018692;28;20021;-73
2022/07/06 01:00:17;;;;;;;4.07;1.60;;;;;;;;;;5018408;28;20035;-74
2022/07/06 01:02:43;;;;;;;2.47;1.48;;;;;;;;;;5040025;28;20029;-71
2022/07/06 01:05:10;;;;;;;3.17;1.48;;;;;;;;;;5025702;28;20131;-70
2022/07/06 01:07:37;;;;;;;3.08;1.42;;;;;;;;;;5023715;28;20095;-73
2022/07/06 01:10:04;;;;;;;3.42;1.50;;;;;;;;;;5025369;28;20472;-70
2022/07/06 01:12:30;;;;;;;2.70;1.40;;;;;;;;;;5023243;28;20378;-74
2022/07/06 01:14:56;;;;;;;2.95;1.45;;;;;;;;;;5016980;28;20055;-73
2022/07/06 01:17:22;;;;;;;4.70;1.55;;;;;;;;;;5018439;28;20033;-73
2022/07/06 01:19:47;;;;;;;3.65;1.50;;;;;;;;;;5022197;28;20028;-73
2022/07/06 01:22:13;;;;;;;1.90;1.38;;;;;;;;;;5027435;28;20103;-73
2022/07/06 01:24:38;;;;;;;3.17;1.65;;;;;;;;;;5024758;28;20036;-73
2022/07/06 01:27:04;;;;;;;3.05;1.60;;;;;;;;;;5018467;28;20049;-74
2022/07/06 01:29:31;;;;;;;3.08;1.60;;;;;;;;;;5025974;28;20053;-73
2022/07/06 01:31:56;;;;;;;4.25;1.45;;;;;;;;;;5018944;28;20145;-73
2022/07/06 01:34:22;;;;;;;2.45;1.40;;;;;;;;;;5021689;28;20392;-71
2022/07/06 01:36:47;;;;;;;2.83;1.40;;;;;;;;;;5021808;28;20032;-70
2022/07/06 01:39:13;;;;;;;2.58;1.40;;;;;;;;;;5018670;28;20036;-74
2022/07/06 01:41:39;;;;;;;3.35;1.80;;;;;;;;;;5019350;28;20037;-73
2022/07/06 01:44:05;;;;;;;2.80;1.50;;;;;;;;;;5022914;28;20029;-73
2022/07/06 01:46:31;;;;;;;3.33;1.70;;;;;;;;;;5024741;28;20041;-71
2022/07/06 01:48:57;;;;;;;3.40;1.63;;;;;;;;;;5019109;28;20036;-74
2022/07/06 01:51:23;;;;;;;3.70;1.67;;;;;;;;;;5024197;28;20363;-73
2022/07/06 01:53:49;;;;;;;3.10;1.83;;;;;;;;;;5024477;28;20482;-74
2022/07/06 01:56:15;;;;;;;3.83;1.90;;;;;;;;;;5021811;28;20026;-70
2022/07/06 01:58:40;;;;;;;2.53;1.65;;;;;;;;;;5021534;28;20041;-73
2022/07/06 02:01:14;;;;;;;3.42;1.60;;;;;;;;;;5024421;28;20036;-70
2022/07/06 02:03:40;;;;;;;4.25;1.65;;;;;;;;;;5023017;28;20038;-74
2022/07/06 02:06:06;;;;;;;3.05;1.70;;;;;;;;;;5023676;28;20030;-73
2022/07/06 02:08:32;;;;;;;2.42;1.30;;;;;;;;;;5011793;28;20841;-71
2022/07/06 02:10:58;;;;;;;2.28;1.40;;;;;;;;;;5012430;28;20485;-73
2022/07/06 02:13:24;;;;;;;2.38;1.42;;;;;;;;;;5020752;28;20082;-73
2022/07/06 02:15:50;;;;;;;3.30;1.55;;;;;;;;;;5021837;28;20084;-73
2022/07/06 02:18:15;;;;;;;3.22;1.73;;;;;;;;;;5024054;28;20474;-73
2022/07/06 02:20:41;;;;;;;2.88;1.73;;;;;;;;;;5022052;28;20036;-73
2022/07/06 02:23:07;;;;;;;3.13;1.52;;;;;;;;;;5024448;28;20018;-74
2022/07/06 02:25:32;;;;;;;2.70;1.50;;;;;;;;;;5020449;28;20082;-70
2022/07/06 02:27:57;;;;;;;2.65;1.33;;;;;;;;;;5018627;28;20025;-74
2022/07/06 02:30:23;;;;;;;3.17;1.42;;;;;;;;;;5017591;28;20050;-73
2022/07/06 02:32:48;;;;;;;2.95;1.45;;;;;;;;;;5015970;28;20033;-73
2022/07/06 02:35:13;;;;;;;2.75;1.52;;;;;;;;;;5022154;28;20033;-73
2022/07/06 02:37:39;;;;;;;3.35;1.60;;;;;;;;;;5018235;28;20037;-71
2022/07/06 02:40:05;;;;;;;2.70;1.40;;;;;;;;;;5017543;28;20533;-73
2022/07/06 02:42:30;;;;;;;2.92;1.50;;;;;;;;;;5019695;28;20733;-73
2022/07/06 02:44:56;;;;;;;3.60;1.60;;;;;;;;;;5019132;28;20053;-70
2022/07/06 02:47:21;;;;;;;3.70;1.80;;;;;;;;;;5019836;28;20031;-74
2022/07/06 02:49:47;;;;;;;3.03;1.50;;;;;;;;;;5020109;28;20035;-73
2022/07/06 02:52:13;;;;;;;3.08;1.63;;;;;;;;;;5023113;28;20037;-72
2022/07/06 02:54:38;;;;;;;2.75;1.70;;;;;;;;;;5016338;28;20056;-73
2022/07/06 02:57:03;;;;;;;3.20;1.45;;;;;;;;;;5020003;28;20461;-70
2022/07/06 02:59:29;;;;;;;3.60;1.40;;;;;;;;;;5014620;28;20032;-74
2022/07/06 03:01:54;;;;;;;2.20;1.30;;;;;;;;;;5018954;28;20048;-74
2022/07/06 03:04:19;;;;;;;3.35;1.45;;;;;;;;;;5018721;28;20036;-73
2022/07/06 03:06:45;;;;;;;3.45;1.48;;;;;;;;;;5018460;28;20017;-71
2022/07/06 03:09:10;;;;;;;2.47;1.50;;;;;;;;;;5011758;28;20037;-73
2022/07/06 03:11:36;;;;;;;3.83;1.75;;;;;;;;;;5019963;28;20436;-74
2022/07/06 03:14:05;;;;;;;4.00;1.50;;;;;;;;;;5023454;28;20132;-73
2022/07/06 03:16:30;;;;;;;4.68;1.70;;;;;;;;;;5024499;28;20106;-70
2022/07/06 03:18:56;;;;;;;2.40;1.40;;;;;;;;;;5021205;28;20042;-73
2022/07/06 03:21:22;;;;;;;4.43;1.85;;;;;;;;;;5024204;28;20029;-73
2022/07/06 03:23:48;;;;;;;4.18;1.88;;;;;;;;;;5023929;28;20051;-73
2022/07/06 03:26:13;;;;;;;5.03;1.70;;;;;;;;;;5021671;28;20470;-74
2022/07/06 03:28:39;;;;;;;3.83;1.50;;;;;;;;;;5021687;28;20017;-73
2022/07/06 03:31:04;;;;;;;4.40;1.70;;;;;;;;;;5021677;28;20532;-73
2022/07/06 03:33:29;;;;;;;3.08;1.40;;;;;;;;;;5018102;28;20034;-71
2022/07/06 03:35:55;;;;;;;3.55;1.65;;;;;;;;;;5011894;28;20147;-74
2022/07/06 03:38:20;;;;;;;2.72;1.40;;;;;;;;;;5021304;28;20430;-70
2022/07/06 03:40:45;;;;;;;5.13;1.63;;;;;;;;;;5022776;28;20116;-73
2022/07/06 03:43:11;;;;;;;2.90;1.58;;;;;;;;;;5026248;28;20466;-70
2022/07/06 03:45:36;;;;;;;3.65;1.60;;;;;;;;;;5018950;28;20036;-73
2022/07/06 03:48:02;;;;;;;3.50;1.50;;;;;;;;;;5016205;28;20719;-73
2022/07/06 03:50:27;;;;;;;2.95;1.50;;;;;;;;;;5019279;28;20029;-73
2022/07/06 03:52:53;;;;;;;2.75;1.60;;;;;;;;;;5022684;28;20029;-72
2022/07/06 03:55:18;;;;;;;3.40;1.60;;;;;;;;;;5021426;28;20116;-72
2022/07/06 03:57:44;;;;;;;4.85;1.77;;;;;;;;;;5020108;28;20037;-69
2022/07/06 04:00:10;;;;;;;6.43;1.77;;;;;;;;;;5020392;28;20095;-70
2022/07/06 04:02:35;;;;;;;3.22;1.73;;;;;;;;;;5019192;28;20120;-72
2022/07/06 04:05:01;;;;;;;3.42;1.58;;;;;;;;;;5016301;28;20036;-73
2022/07/06 04:07:26;;;;;;;4.40;2.08;;;;;;;;;;5020496;28;20108;-73
2022/07/06 04:09:52;;;;;;;4.85;1.90;;;;;;;;;;5015550;28;20125;-70
2022/07/06 04:12:17;;;;;;;4.95;1.88;;;;;;;;;;5018606;28;20045;-73
2022/07/06 04:14:43;;;;;;;3.47;1.60;;;;;;;;;;5023054;28;20017;-74
2022/07/06 04:19:53;;;;;;;2.38;1.50;;;;;;;;;;5023066;28;20512;-73
2022/07/06 04:22:18;;;;;;;3.15;1.67;;;;;;;;;;5021044;28;20037;-73
2022/07/06 04:24:44;;;;;;;2.25;1.40;;;;;;;;;;5027229;28;20580;-72
2022/07/06 04:27:09;;;;;;;2.20;1.50;;;;;;;;;;5021698;28;20025;-70
2022/07/06 04:29:34;;;;;;;3.50;1.83;;;;;;;;;;5025004;28;20061;-73
2022/07/06 04:32:00;;;;;;;3.80;1.60;;;;;;;;;;5021381;28;20079;-73
2022/07/06 04:34:25;;;;;;;3.50;1.85;;;;;;;;;;5019732;28;20025;-73
2022/07/06 04:36:50;;;;;;;3.50;1.70;;;;;;;;;;5020821;28;20040;-74
2022/07/06 04:39:16;;;;;;;3.83;1.92;;;;;;;;;;5021939;28;20082;-70
2022/07/06 04:41:41;;;;;;;4.53;2.17;;;;;;;;;;5020284;28;20029;-74
2022/07/06 04:44:06;;;;;;;6.07;1.90;;;;;;;;;;5022067;28;20018;-74
2022/07/06 04:46:32;;;;;;;3.28;1.90;;;;;;;;;;5024555;28;20033;-75
2022/07/06 04:48:57;;;;;;;2.92;1.73;;;;;;;;;;5018185;28;20029;-73
2022/07/06 04:51:23;;;;;;;4.65;2.10;;;;;;;;;;5022498;28;20116;-74
2022/07/06 04:53:48;;;;;;;4.38;2.10;;;;;;;;;;5018785;28;20033;-74
2022/07/06 04:56:13;;;;;;;9.13;2.97;;;;;;;;;;5022054;28;20104;-73
2022/07/06 04:58:39;;;;;;;3.15;1.90;;;;;;;;;;5021293;28;20106;-74
2022/07/06 05:01:04;;;;;;;7.13;2.30;;;;;;;;;;5015868;28;20057;-75
2022/07/06 05:03:29;;;;;;;3.95;2.00;;;;;;;;;;5023188;28;20034;-70
2022/07/06 05:05:55;;;;;;;4.40;2.33;;;;;;;;;;5019818;28;20112;-73
2022/07/06 05:08:20;;;;;;;3.55;2.22;;;;;;;;;;5021849;28;20096;-73
2022/07/06 05:10:47;;;;;;;2.90;2.10;;;;;;;;;;5023601;28;20041;-74
2022/07/06 05:13:12;;;;;;;4.60;2.83;;;;;;;;;;5018020;28;20061;-73
2022/07/06 05:15:38;;;;;;;3.05;2.25;;;;;;;;;;5020026;28;22070;-73
2022/07/06 05:18:03;;;;;;;4.38;2.50;;;;;;;;;;5016098;28;20071;-74
2022/07/06 05:20:29;;;;;;;4.30;2.67;;;;;;;;;;5021975;28;20033;-75
2022/07/06 05:22:54;;;;;;;4.88;2.80;;;;;;;;;;5027892;28;20063;-70
2022/07/06 05:25:19;;;;;;;3.88;2.63;;;;;;;;;;5023014;28;20075;-73
2022/07/06 05:27:45;;;;;;;5.55;2.83;;;;;;;;;;5017426;28;20124;-73
2022/07/06 05:30:11;;;;;;;5.90;2.53;;;;;;;;;;5023842;28;20748;-75
2022/07/06 05:32:36;;;;;;;4.55;2.40;;;;;;;;;;5021736;28;20114;-74
2022/07/06 05:35:02;;;;;;;3.75;2.30;;;;;;;;;;5020061;28;20063;-72
2022/07/06 05:37:27;;;;;;;6.65;2.50;;;;;;;;;;5023498;28;20118;-73
2022/07/06 05:39:53;;;;;;;3.88;2.13;;;;;;;;;;5014167;28;20053;-70
2022/07/06 05:42:18;;;;;;;5.00;2.22;;;;;;;;;;5023816;28;20033;-73
2022/07/06 05:44:43;;;;;;;2.97;1.98;;;;;;;;;;5020981;28;20040;-70
2022/07/06 05:52:37;;;;;;;4.82;2.10;;;;;;;;;;5023214;28;20107;-73
2022/07/06 05:55:03;;;;;;;5.47;2.10;;;;;;;;;;5018199;28;20168;-70
2022/07/06 05:57:28;;;;;;;2.70;1.90;;;;;;;;;;5015491;28;20029;-71
2022/07/06 05:59:54;;;;;;;5.78;1.88;;;;;;;;;;5016193;28;20061;-73
2022/07/06 06:02:19;;;;;;;3.10;1.60;;;;;;;;;;5020457;28;20044;-73
2022/07/06 06:04:44;;;;;;;4.88;1.50;;;;;;;;;;5022309;28;20037;-71
2022/07/06 06:07:10;;;;;;;2.47;1.45;;;;;;;;;;5021836;28;20025;-70
2022/07/06 06:09:35;;;;;;;3.65;1.80;;;;;;;;;;5026387;28;20167;-73
2022/07/06 06:12:00;;;;;;;3.45;1.65;;;;;;;;;;5015129;28;20120;-72
2022/07/06 06:14:26;;;;;;;3.83;1.67;;;;;;;;;;5020404;28;20036;-75
2022/07/06 06:16:51;;;;;;;2.58;1.40;;;;;;;;;;5021372;28;20358;-73
2022/07/06 06:19:17;;;;;;;3.88;1.73;;;;;;;;;;5018736;28;20125;-70
2022/07/06 06:21:42;;;;;;;3.10;1.65;;;;;;;;;;5025860;28;20037;-70
2022/07/06 06:24:07;;;;;;;2.35;1.40;;;;;;;;;;5025471;28;20017;-70
2022/07/06 06:26:33;;;;;;;3.42;1.60;;;;;;;;;;5023265;28;20029;-70
2022/07/06 06:28:58;;;;;;;4.40;1.77;;;;;;;;;;5017038;28;20022;-73
2022/07/06 06:31:23;;;;;;;3.58;1.55;;;;;;;;;;5023352;28;21508;-75
2022/07/06 06:33:49;;;;;;;2.47;1.25;;;;;;;;;;5030174;28;20450;-75
2022/07/06 06:36:14;;;;;;;2.50;1.10;;;;;;;;;;5026638;28;20163;-75
2022/07/06 06:38:40;;;;;;;4.72;1.33;;;;;;;;;;5031115;28;20025;-70
2022/07/06 06:41:05;;;;;;;2.35;1.25;;;;;;;;;;5024891;28;20390;-73
2022/07/06 06:43:31;;;;;;;2.55;1.30;;;;;;;;;;5026721;28;20029;-73
2022/07/06 06:45:56;;;;;;;2.63;1.23;;;;;;;;;;5026690;28;20024;-73
2022/07/06 06:48:22;;;;;;;1.80;1.00;;;;;;;;;;5020462;28;20082;-70
2022/07/06 06:50:47;;;;;;;2.28;1.38;;;;;;;;;;5024782;28;20032;-74
2022/07/06 06:53:13;;;;;;;3.38;1.30;;;;;;;;;;5025803;28;20021;-73
2022/07/06 06:55:38;;;;;;;6.93;1.45;;;;;;;;;;5022080;28;20034;-73
2022/07/06 06:58:03;;;;;;;2.08;0.82;;;;;;;;;;5017672;28;20044;-74
2022/07/06 07:00:29;;;;;;;3.50;0.95;;;;;;;;;;5018433;28;20040;-73
2022/07/06 07:02:55;;;;;;;1.95;0.82;;;;;;;;;;5024264;28;20394;-74
2022/07/06 07:05:20;;;;;;;2.38;0.90;;;;;;;;;;5019032;28;20026;-73
2022/07/06 07:07:45;;;;;;;1.20;0.60;;;;;;;;;;5019336;28;20017;-74
2022/07/06 07:10:11;;;;;;;2.42;0.68;;;;;;;;;;5016054;28;20037;-71
2022/07/06 07:12:43;;;;;;;2.58;0.52;;;;;;;;;;5016897;28;20064;-71
2022/07/06 07:15:08;;;;;;;1.10;0.60;;;;;;;;;;5013331;28;20444;-74
2022/07/06 07:17:34;;;;;;;1.08;0.50;;;;;;;;;;5015119;28;20057;-75
2022/07/06 07:19:59;;;;;;;1.80;0.70;;;;;;;;;;5018590;28;20417;-73
2022/07/06 07:22:25;;;;;;;3.33;0.70;;;;;;;;;;5014753;28;20431;-73
2022/07/06 07:24:50;;;;;;;1.05;0.50;;;;;;;;;;5019468;28;20038;-73
2022/07/06 07:27:16;;;;;;;2.88;0.68;;;;;;;;;;5018925;28;20029;-74
2022/07/06 07:29:41;;;;;;;0.98;0.60;;;;;;;;;;5021526;28;20061;-73
2022/07/06 07:32:06;;;;;;;2.05;0.85;;;;;;;;;;5020302;28;20040;-74
2022/07/06 07:34:32;;;;;;;1.17;0.65;;;;;;;;;;5016067;28;20044;-74
2022/07/06 07:36:57;;;;;;;2.10;0.60;;;;;;;;;;5019794;28;20038;-71
2022/07/06 07:39:22;;;;;;;4.00;0.70;;;;;;;;;;5014480;28;20072;-74
2022/07/06 07:41:50;;;;;;;1.60;0.70;;;;;;;;;;5021120;28;20037;-73
2022/07/06 07:44:15;;;;;;;2.17;0.60;;;;;;;;;;5018444;28;20031;-75
2022/07/06 07:46:41;;;;;;;1.80;0.60;;;;;;;;;;5020160;28;20029;-75
2022/07/06 07:49:07;;;;;;;1.80;0.80;;;;;;;;;;5012548;28;20388;-73
2022/07/06 07:51:32;;;;;;;2.95;0.75;;;;;;;;;;5010483;28;21765;-74
2022/07/06 07:53:58;;;;;;;1.30;0.50;;;;;;;;;;5015267;28;20091;-73
2022/07/06 07:56:23;;;;;;;2.65;0.60;;;;;;;;;;5017327;28;20044;-73
2022/07/06 07:58:49;;;;;;;1.83;0.60;;;;;;;;;;5020514;28;20583;-70
2022/07/06 08:01:14;;;;;;;2.80;0.60;;;;;;;;;;5017175;28;20442;-73
2022/07/06 08:03:40;;;;;;;2.20;0.73;;;;;;;;;;5018524;28;20029;-73
2022/07/06 08:06:05;;;;;;;1.05;0.70;;;;;;;;;;5016962;28;20048;-71
2022/07/06 08:08:30;;;;;;;3.13;0.70;;;;;;;;;;5010333;28;20838;-73
2022/07/06 08:10:56;;;;;;;2.47;0.75;;;;;;;;;;5018815;28;20108;-74
2022/07/06 08:13:21;;;;;;;2.38;0.60;;;;;;;;;;5016156;28;20038;-73
2022/07/06 08:15:46;;;;;;;0.73;0.50;;;;;;;;;;5013319;28;20060;-72
2022/07/06 08:18:12;;;;;;;1.52;0.50;;;;;;;;;;5014794;28;20030;-70
2022/07/06 08:20:37;;;;;;;1.48;0.50;;;;;;;;;;5014932;28;20029;-74
2022/07/06 08:23:03;;;;;;;1.90;0.65;;;;;;;;;;5013498;28;20082;-73
2022/07/06 08:25:29;;;;;;;0.85;0.60;;;;;;;;;;5018296;28;20221;-73
2022/07/06 08:27:55;;;;;;;1.33;0.50;;;;;;;;;;5015473;28;20037;-73
2022/07/06 08:30:20;;;;;;;1.42;0.60;;;;;;;;;;5022018;28;20049;-73
2022/07/06 08:32:46;;;;;;;2.42;0.70;;;;;;;;;;5013340;28;20037;-73
2022/07/06 08:35:12;;;;;;;1.90;0.70;;;;;;;;;;5016964;28;20132;-71
2022/07/06 08:37:37;;;;;;;2.78;0.75;;;;;;;;;;5019202;28;20040;-73
2022/07/06 08:40:04;;;;;;;1.15;0.50;;;;;;;;;;5014830;28;20481;-73
2022/07/06 08:42:32;;;;;;;1.08;0.55;;;;;;;;;;5019035;28;20488;-71
2022/07/06 08:45:02;;;;;;;1.60;0.60;;;;;;;;;;5015026;28;20033;-73
2022/07/06 08:47:29;;;;;;;1.30;0.50;;;;;;;;;;5013816;28;20048;-71
2022/07/06 08:49:55;;;;;;;1.95;0.50;;;;;;;;;;5016959;28;20112;-70
2022/07/06 08:52:23;;;;;;;1.48;0.55;;;;;;;;;;5015205;28;20103;-70
2022/07/06 08:54:48;;;;;;;3.42;0.60;;;;;;;;;;5022278;28;20038;-75
2022/07/06 08:57:14;;;;;;;0.70;0.50;;;;;;;;;;5001789;28;20665;-73
2022/07/06 08:59:39;;;;;;;1.85;0.40;;;;;;;;;;5018141;28;20033;-72
2022/07/06 09:02:05;;;;;;;0.82;0.50;;;;;;;;;;5010086;28;20025;-72
2022/07/06 09:04:33;;;;;;;2.63;0.60;;;;;;;;;;5028152;28;20689;-74
2022/07/06 09:06:59;;;;;;;1.15;0.55;;;;;;;;;;5009649;28;20033;-71
2022/07/06 09:09:24;;;;;;;1.08;0.50;;;;;;;;;;5012897;28;20125;-72
2022/07/06 09:11:51;;;;;;;1.35;0.50;;;;;;;;;;5018649;28;20043;-74
2022/07/06 09:14:18;;;;;;;0.95;0.50;;;;;;;;;;5020753;28;20040;-70
2022/07/06 09:16:46;;;;;;;1.90;0.50;;;;;;;;;;5020066;28;20033;-71
2022/07/06 09:19:11;;;;;;;0.77;0.40;;;;;;;;;;5015589;28;20690;-73
2022/07/06 09:21:38;;;;;;;0.80;0.40;;;;;;;;;;5001366;28;20112;-73
2022/07/06 09:24:10;;;;;;;1.70;0.50;;;;;;;;;;5010963;28;20056;-73
2022/07/06 09:26:36;;;;;;;1.13;0.50;;;;;;;;;;5015945;28;20035;-72
2022/07/06 09:29:02;;;;;;;2.35;0.65;;;;;;;;;;5010401;28;20130;-74
2022/07/06 09:31:28;;;;;;;0.82;0.45;;;;;;;;;;5018844;28;20174;-73
2022/07/06 09:34:05;;;;;;;0.80;0.60;;;;;;;;;;5009371;28;20766;-73
2022/07/06 09:36:50;;;;;;;2.50;0.50;;;;;;;;;;5031794;28;20629;-74
2022/07/06 09:39:18;;;;;;;0.63;0.40;;;;;;;;;;5025016;28;20100;-72
2022/07/06 09:41:45;;;;;;;1.45;0.82;;;;;;;;;;5022220;28;20079;-70
2022/07/06 09:44:11;;;;;;;1.13;0.50;;;;;;;;;;5023132;28;20045;-73
2022/07/06 09:46:45;;;;;;;0.73;0.38;;;;;;;;;;5021134;28;20105;-73
2022/07/06 09:49:11;;;;;;;1.17;0.43;;;;;;;;;;5034413;28;20392;-73
2022/07/06 09:51:37;;;;;;;1.90;0.50;;;;;;;;;;5030802;28;20017;-73
2022/07/06 09:54:08;;;;;;;1.50;0.40;;;;;;;;;;5027951;28;20386;-70
2022/07/06 09:56:41;;;;;;;1.38;0.40;;;;;;;;;;5027180;28;20075;-73
2022/07/06 09:59:14;;;;;;;0.63;0.30;;;;;;;;;;5028796;28;20075;-71
2022/07/06 10:01:41;;;;;;;1.42;0.45;;;;;;;;;;5029348;28;20037;-74
2022/07/06 10:04:08;;;;;;;0.82;0.38;;;;;;;;;;5018287;28;20025;-73
2022/07/06 10:06:33;;;;;;;2.28;0.40;;;;;;;;;;5026237;28;20079;-73
2022/07/06 10:08:59;;;;;;;0.52;0.30;;;;;;;;;;5027099;28;20362;-72
2022/07/06 10:11:26;;;;;;;2.40;0.55;;;;;;;;;;5022045;28;20485;-73
2022/07/06 10:13:56;;;;;;;1.40;0.40;;;;;;;;;;5024541;28;20115;-74
2022/07/06 10:16:25;;;;;;;0.93;0.40;;;;;;;;;;5026041;28;20436;-72
2022/07/06 10:18:53;;;;;;;0.90;0.50;;;;;;;;;;5032156;28;20436;-72
2022/07/06 10:21:20;;;;;;;0.70;0.40;;;;;;;;;;5030870;28;20021;-73
2022/07/06 10:23:46;;;;;;;1.67;0.38;;;;;;;;;;5027090;28;20053;-72
2022/07/06 10:26:12;;;;;;;1.10;0.50;;;;;;;;;;5029809;28;20029;-72
2022/07/06 10:28:38;;;;;;;1.00;0.50;;;;;;;;;;5027883;28;20100;-74
2022/07/06 10:31:05;;;;;;;2.40;0.50;;;;;;;;;;5023804;28;21201;-73
2022/07/06 10:33:32;;;;;;;0.85;0.32;;;;;;;;;;5026537;28;20121;-73
2022/07/06 10:35:58;;;;;;;1.13;0.55;;;;;;;;;;5030916;28;20029;-72
2022/07/06 10:38:32;;;;;;;1.30;0.50;;;;;;;;;;5025385;28;20037;-74
2022/07/06 10:41:06;;;;;;;1.05;0.50;;;;;;;;;;5020426;28;20029;-74
2022/07/06 10:43:48;;;;;;;0.70;0.32;;;;;;;;;;5024388;28;20033;-74
2022/07/06 10:46:16;;;;;;;1.23;0.50;;;;;;;;;;5023228;28;20029;-70
2022/07/06 10:48:43;;;;;;;1.00;0.32;;;;;;;;;;5025105;28;20061;-73
2022/07/06 10:51:12;;;;;;;0.57;0.40;;;;;;;;;;5025182;28;20080;-73
2022/07/06 10:53:39;;;;;;;1.20;0.50;;;;;;;;;;5022494;28;20037;-75
2022/07/06 10:56:10;;;;;;;1.92;0.55;;;;;;;;;;5018879;28;20081;-74
2022/07/06 10:58:36;;;;;;;3.08;0.50;;;;;;;;;;5028693;28;20398;-73
2022/07/06 11:01:03;;;;;;;0.30;0.30;;;;;;;;;;5027872;28;20033;-74
2022/07/06 11:04:05;;;;;;;1.95;0.40;;;;;;;;;;5024710;28;20025;-72
2022/07/06 11:06:38;;;;;;;2.15;0.32;;;;;;;;;;5021890;28;20366;-72
2022/07/06 11:09:10;;;;;;;1.60;0.40;;;;;;;;;;5023627;28;20036;-75
2022/07/06 11:11:35;;;;;;;2.33;0.43;;;;;;;;;;5026403;28;20037;-70
2022/07/06 11:14:05;;;;;;;0.68;0.30;;;;;;;;;;5025805;28;21681;-70
2022/07/06 11:16:39;;;;;;;1.05;0.43;;;;;;;;;;5028859;28;20034;-74
2022/07/06 11:19:13;;;;;;;1.40;0.50;;;;;;;;;;5024331;28;20524;-73
2022/07/06 11:21:47;;;;;;;2.60;0.60;;;;;;;;;;5024955;28;20029;-71
2022/07/06 11:24:23;;;;;;;3.38;0.50;;;;;;;;;;5026595;28;20075;-73
2022/07/06 11:26:50;;;;;;;1.13;0.30;;;;;;;;;;5023643;28;20032;-73
2022/07/06 11:29:18;;;;;;;2.05;0.60;;;;;;;;;;5026380;28;20025;-73
2022/07/06 11:31:45;;;;;;;1.20;0.52;;;;;;;;;;5029768;28;20042;-73
2022/07/06 11:34:14;;;;;;;1.13;0.50;;;;;;;;;;5023255;28;20035;-71
2022/07/06 11:36:40;;;;;;;2.08;0.40;;;;;;;;;;5029387;28;20025;-72
2022/07/06 11:39:06;;;;;;;2.05;0.55;;;;;;;;;;5026315;28;20094;-72
2022/07/06 11:41:31;;;;;;;1.80;0.45;;;;;;;;;;5028525;28;20021;-72
2022/07/06 11:43:57;;;;;;;0.90;0.40;;;;;;;;;;5026110;28;20476;-72
2022/07/06 11:46:36;;;;;;;1.17;0.60;;;;;;;;;;5027954;28;20116;-74
2022/07/06 11:49:06;;;;;;;1.23;0.50;;;;;;;;;;5028502;28;20326;-73
2022/07/06 11:51:34;;;;;;;1.75;0.90;;;;;;;;;;5025412;28;20056;-74
2022/07/06 11:54:07;;;;;;;1.52;0.50;;;;;;;;;;5029847;28;20076;-75
2022/07/06 11:56:34;;;;;;;1.65;0.50;;;;;;;;;;5023070;28;20043;-73
2022/07/06 11:59:00;;;;;;;0.93;0.50;;;;;;;;;;5026549;28;20036;-73
2022/07/06 12:01:30;;;;;;;2.17;0.50;;;;;;;;;;5029113;28;20060;-76
2022/07/06 12:04:03;;;;;;;1.00;0.50;;;;;;;;;;5026652;28;20029;-73
2022/07/06 12:06:29;;;;;;;;;;;;;;;;;;5029707;28;20405;-73
2022/07/06 12:08:57;;;;;;;1.15;0.50;;;;;;;;;;5024919;28;19913;-74
2022/07/06 12:11:25;;;;;;;0.95;0.40;;;;;;;;;;5024542;28;20457;-76
2022/07/06 12:13:53;;;;;;;2.42;0.55;;;;;;;;;;5026485;28;20112;-76
2022/07/06 12:16:19;;;;;;;3.00;0.50;;;;;;;;;;5024549;28;20390;-74
2022/07/06 12:18:47;;;;;;;1.20;0.40;;;;;;;;;;5020311;28;20090;-75
2022/07/06 12:21:19;;;;;;;0.60;0.30;;;;;;;;;;5026635;28;20083;-76
2022/07/06 12:23:46;;;;;;;1.05;0.47;;;;;;;;;;5018419;28;20021;-71
2022/07/06 12:26:14;;;;;;;2.75;0.60;;;;;;;;;;5017587;28;20116;-72
2022/07/06 12:28:40;;;;;;;0.77;0.40;;;;;;;;;;5018735;28;20457;-74
2022/07/06 12:31:05;;;;;;;1.05;0.40;;;;;;;;;;5025070;28;20485;-71
2022/07/06 12:33:31;;;;;;;1.98;0.52;;;;;;;;;;5029562;28;20037;-71
2022/07/06 12:35:56;;;;;;;1.95;0.52;;;;;;;;;;5025865;28;20051;-74
2022/07/06 12:38:26;;;;;;;4.85;0.65;;;;;;;;;;5021618;28;20033;-71
2022/07/06 12:40:52;;;;;;;1.38;0.63;;;;;;;;;;5021735;28;20025;-71
2022/07/06 12:43:38;;;;;;;1.77;0.40;;;;;;;;;;5028124;28;20036;-71
2022/07/06 12:46:23;;;;;;;1.58;0.50;;;;;;;;;;5025014;28;20078;-74
2022/07/06 12:48:55;;;;;;;2.25;0.52;;;;;;;;;;5023451;28;20531;-74
2022/07/06 12:51:21;;;;;;;1.77;0.55;;;;;;;;;;5026584;28;20094;-74
2022/07/06 12:53:46;;;;;;;1.65;0.60;;;;;;;;;;5025149;28;20069;-74
2022/07/06 12:56:12;;;;;;;1.70;0.70;;;;;;;;;;5024402;28;20038;-73
2022/07/06 12:58:38;;;;;;;1.48;0.60;;;;;;;;;;5020107;28;20035;-74
2022/07/06 13:01:03;;;;;;;1.98;0.50;;;;;;;;;;5023755;28;20036;-74
2022/07/06 13:03:39;;;;;;;0.95;0.40;;;;;;;;;;5018184;28;20037;-74
2022/07/06 13:06:05;;;;;;;1.42;0.52;;;;;;;;;;5024673;28;20033;-72
2022/07/06 13:08:30;;;;;;;3.33;1.17;;;;;;;;;;5018229;28;20037;-73
2022/07/06 13:10:55;;;;;;;1.42;0.50;;;;;;;;;;5026646;28;20029;-74
2022/07/06 13:13:22;;;;;;;2.15;0.57;;;;;;;;;;5027319;28;20037;-71
2022/07/06 13:15:47;;;;;;;3.90;0.60;;;;;;;;;;5022832;28;20437;-74
2022/07/06 13:18:13;;;;;;;1.40;0.50;;;;;;;;;;5018459;28;20122;-74
2022/07/06 13:20:39;;;;;;;3.97;0.47;;;;;;;;;;5024864;28;20029;-75
2022/07/06 13:23:04;;;;;;;1.38;0.50;;;;;;;;;;5023815;28;20482;-72
2022/07/06 13:25:29;;;;;;;2.90;0.50;;;;;;;;;;5018245;28;20068;-73
2022/07/06 13:27:55;;;;;;;2.00;0.50;;;;;;;;;;5023419;28;20457;-72
2022/07/06 13:30:20;;;;;;;1.85;0.60;;;;;;;;;;5023781;28;20056;-71
2022/07/06 13:32:46;;;;;;;5.22;0.70;;;;;;;;;;5023603;28;20124;-71
2022/07/06 13:35:12;;;;;;;2.55;0.65;;;;;;;;;;5023462;28;20044;-74
2022/07/06 13:37:37;;;;;;;0.77;0.57;;;;;;;;;;5021547;28;20055;-71
2022/07/06 13:40:03;;;;;;;0.95;0.50;;;;;;;;;;5022059;28;20084;-74
2022/07/06 13:42:29;;;;;;;1.15;0.50;;;;;;;;;;5017561;28;20588;-72
2022/07/06 13:44:54;;;;;;;3.50;0.70;;;;;;;;;;5021309;28;20396;-71
2022/07/06 13:47:19;;;;;;;1.55;0.80;;;;;;;;;;5021498;28;20402;-71
2022/07/06 13:49:47;;;;;;;2.63;0.75;;;;;;;;;;5014057;28;20422;-74
2022/07/06 13:52:13;;;;;;;2.40;0.90;;;;;;;;;;5015938;28;20052;-71
2022/07/06 13:54:38;;;;;;;1.35;0.63;;;;;;;;;;5025431;28;20037;-71
2022/07/06 13:57:05;;;;;;;1.75;1.00;;;;;;;;;;5023818;28;20395;-73
2022/07/06 13:59:30;;;;;;;1.58;0.95;;;;;;;;;;5025212;28;20033;-71
2022/07/06 14:01:56;;;;;;;1.80;1.08;;;;;;;;;;5022017;28;20036;-71
2022/07/06 14:04:21;;;;;;;1.92;0.80;;;;;;;;;;5023374;28;20128;-73
2022/07/06 14:06:47;;;;;;;2.15;0.93;;;;;;;;;;5020123;28;20378;-73
2022/07/06 14:09:12;;;;;;;3.03;1.10;;;;;;;;;;5019681;28;20440;-73
2022/07/06 14:11:38;;;;;;;1.30;0.80;;;;;;;;;;5022123;28;20028;-74
2022/07/06 14:14:06;;;;;;;3.50;1.10;;;;;;;;;;5025674;28;20124;-72
2022/07/06 14:16:34;;;;;;;3.08;1.10;;;;;;;;;;5021828;28;20037;-71
2022/07/06 14:18:59;;;;;;;1.35;0.90;;;;;;;;;;5017862;28;20494;-71
2022/07/06 14:21:25;;;;;;;2.72;1.00;;;;;;;;;;5014181;28;20033;-74
2022/07/06 14:23:50;;;;;;;2.40;0.95;;;;;;;;;;5020624;28;20351;-72
2022/07/06 14:26:15;;;;;;;2.33;1.20;;;;;;;;;;5013548;28;20063;-74
2022/07/06 14:28:41;;;;;;;1.75;1.00;;;;;;;;;;5017095;28;20075;-71
2022/07/06 14:31:07;;;;;;;1.60;0.90;;;;;;;;;;5023655;28;20045;-73
2022/07/06 14:33:32;;;;;;;1.55;0.88;;;;;;;;;;5020168;28;20564;-71
2022/07/06 14:35:58;;;;;;;7.75;1.00;;;;;;;;;;5018606;28;20033;-71
2022/07/06 14:38:24;;;;;;;3.38;1.10;;;;;;;;;;5024719;28;20086;-73
2022/07/06 14:40:49;;;;;;;2.72;1.00;;;;;;;;;;5025566;28;20492;-73
2022/07/06 14:43:15;;;;;;;3.40;0.90;;;;;;;;;;5020362;28;20032;-73
2022/07/06 14:45:44;;;;;;;3.17;1.00;;;;;;;;;;5018731;28;20034;-71
2022/07/06 14:48:09;;;;;;;2.53;0.95;;;;;;;;;;5019438;28;20587;-72